createdAt,value
2023-03-08T00:00:57.760Z,12.60
2023-03-08T00:03:25.494Z,13.43
2023-03-08T00:05:53.252Z,13.50
2023-03-08T00:08:22.324Z,13.70
2023-03-08T00:10:49.959Z,14.83
2023-03-08T00:13:17.654Z,16.43
2023-03-08T00:15:45.409Z,15.47
2023-03-08T00:18:13.266Z,16.17
2023-03-08T00:20:40.965Z,15.07
2023-03-08T00:23:09.910Z,17.23
2023-03-08T00:25:38.971Z,16.60
2023-03-08T00:28:06.633Z,15.83
2023-03-08T00:30:34.277Z,17.10
2023-03-08T00:33:02.002Z,17.30
2023-03-08T00:35:29.671Z,17.57
2023-03-08T00:37:57.316Z,16.87
2023-03-08T00:40:25.030Z,17.10
2023-03-08T00:42:54.048Z,18.00
2023-03-08T00:45:21.744Z,17.63
2023-03-08T00:47:49.428Z,18.30
2023-03-08T00:50:17.542Z,17.27
2023-03-08T00:52:45.193Z,17.27
2023-03-08T00:55:12.891Z,17.83
2023-03-08T00:57:40.526Z,17.80
2023-03-08T01:00:12.912Z,17.70
2023-03-08T01:02:41.319Z,16.57
2023-03-08T01:05:10.253Z,17.67
2023-03-08T01:07:37.952Z,18.53
2023-03-08T01:10:06.236Z,17.67
2023-03-08T01:12:34.089Z,17.17
2023-03-08T01:15:01.878Z,17.37
2023-03-08T01:17:30.915Z,17.20
2023-03-08T01:19:58.862Z,17.17
2023-03-08T01:22:26.575Z,17.27
2023-03-08T01:24:54.289Z,17.03
2023-03-08T01:27:21.961Z,17.43
2023-03-08T01:29:49.648Z,16.30
2023-03-08T01:32:17.378Z,17.90
2023-03-08T01:34:46.434Z,16.77
2023-03-08T01:37:14.148Z,17.20
2023-03-08T01:39:41.819Z,17.73
2023-03-08T01:42:09.724Z,17.43
2023-03-08T01:44:53.386Z,19.23
2023-03-08T01:47:22.435Z,18.30
2023-03-08T01:49:52.168Z,17.03
2023-03-08T01:52:22.089Z,17.63
2023-03-08T01:54:51.155Z,17.83
2023-03-08T01:57:22.215Z,18.33
2023-03-08T01:59:51.174Z,18.17
2023-03-08T02:02:20.172Z,19.10
2023-03-08T02:04:47.809Z,19.07
2023-03-08T02:07:17.035Z,19.43
2023-03-08T02:09:45.243Z,18.57
2023-03-08T02:12:14.214Z,18.80
2023-03-08T02:14:42.729Z,18.90
2023-03-08T02:17:10.587Z,18.30
2023-03-08T02:19:44.399Z,18.93
2023-03-08T02:22:12.768Z,18.93
2023-03-08T02:24:41.834Z,19.67
2023-03-08T02:27:13.933Z,19.20
2023-03-08T02:29:42.155Z,18.70
2023-03-08T02:32:10.146Z,19.53
2023-03-08T02:34:37.939Z,21.33
2023-03-08T02:37:05.639Z,19.13
2023-03-08T02:39:33.292Z,18.47
2023-03-08T02:42:02.306Z,19.20
2023-03-08T02:44:29.915Z,19.87
2023-03-08T02:46:57.573Z,20.87
2023-03-08T02:49:25.329Z,20.07
2023-03-08T02:51:53.086Z,19.67
2023-03-08T02:54:20.783Z,20.20
2023-03-08T02:56:48.477Z,20.03
2023-03-08T02:59:17.484Z,19.33
2023-03-08T03:01:45.231Z,18.70
2023-03-08T03:04:12.933Z,20.77
2023-03-08T03:06:40.644Z,20.30
2023-03-08T03:09:09.083Z,20.20
2023-03-08T03:11:36.932Z,20.40
2023-03-08T03:14:04.617Z,19.57
2023-03-08T03:16:33.998Z,19.33
2023-03-08T03:19:01.803Z,19.30
2023-03-08T03:21:29.784Z,19.57
2023-03-08T03:23:57.589Z,19.67
2023-03-08T03:26:27.410Z,21.13
2023-03-08T03:28:57.526Z,21.23
2023-03-08T03:31:25.659Z,21.83
2023-03-08T03:33:54.996Z,21.13
2023-03-08T03:36:23.305Z,23.03
2023-03-08T03:38:51.329Z,23.50
2023-03-08T03:41:21.123Z,23.30
2023-03-08T03:43:49.287Z,24.47
2023-03-08T03:46:18.548Z,24.30
2023-03-08T03:48:46.582Z,24.73
2023-03-08T03:51:17.461Z,24.67
2023-03-08T03:53:45.337Z,23.67
2023-03-08T03:56:14.797Z,23.50
2023-03-08T03:58:42.754Z,24.80
2023-03-08T04:01:11.287Z,25.83
2023-03-08T04:03:39.113Z,24.27
2023-03-08T04:06:08.575Z,25.97
2023-03-08T04:08:42.086Z,25.47
2023-03-08T04:11:10.240Z,25.93
2023-03-08T04:13:38.247Z,26.10
2023-03-08T04:16:12.497Z,26.87
2023-03-08T04:18:40.291Z,28.20
2023-03-08T04:21:08.245Z,27.33
2023-03-08T04:23:37.519Z,28.73
2023-03-08T04:26:05.834Z,30.17
2023-03-08T04:28:34.119Z,29.60
2023-03-08T04:31:02.415Z,31.17
2023-03-08T04:33:30.076Z,32.13
2023-03-08T04:35:57.806Z,33.30
2023-03-08T04:38:25.492Z,36.17
2023-03-08T04:41:05.441Z,36.77
2023-03-08T04:43:33.848Z,39.50
2023-03-08T04:46:02.417Z,39.03
2023-03-08T04:48:30.212Z,38.70
2023-03-08T04:50:59.460Z,39.17
2023-03-08T04:53:27.938Z,38.63
2023-03-08T04:55:57.143Z,38.53
2023-03-08T04:58:24.820Z,38.60
2023-03-08T05:00:52.617Z,38.33
2023-03-08T05:03:20.303Z,39.43
2023-03-08T05:05:48.579Z,37.67
2023-03-08T05:08:16.280Z,37.97
2023-03-08T05:10:48.288Z,37.57
2023-03-08T05:13:17.605Z,37.73
2023-03-08T05:15:45.275Z,40.83
2023-03-08T05:18:13.181Z,35.23
2023-03-08T05:20:40.892Z,34.73
2023-03-08T05:23:08.556Z,37.77
2023-03-08T05:25:36.191Z,37.67
2023-03-08T05:28:03.812Z,35.37
2023-03-08T05:30:32.860Z,34.00
2023-03-08T05:33:00.498Z,34.40
2023-03-08T05:35:28.201Z,36.90
2023-03-08T05:37:55.814Z,34.17
2023-03-08T05:40:23.457Z,33.87
2023-03-08T05:42:51.148Z,37.23
2023-03-08T05:45:18.914Z,42.87
2023-03-08T05:47:47.992Z,36.40
2023-03-08T05:50:15.635Z,34.03
2023-03-08T05:52:43.547Z,34.23
2023-03-08T05:55:11.393Z,35.67
2023-03-08T05:57:39.347Z,37.40
2023-03-08T06:00:08.268Z,35.73
2023-03-08T06:02:35.974Z,36.23
2023-03-08T06:05:05.588Z,39.17
2023-03-08T06:08:40.337Z,34.27
2023-03-08T06:11:08.220Z,33.27
2023-03-08T06:13:36.970Z,35.40
2023-03-08T06:16:06.099Z,35.87
2023-03-08T06:18:34.566Z,34.27
2023-03-08T06:21:03.929Z,34.60
2023-03-08T06:23:32.715Z,31.97
2023-03-08T06:26:02.007Z,33.57
2023-03-08T06:28:30.181Z,32.33
2023-03-08T06:30:58.312Z,34.40
2023-03-08T06:33:27.926Z,34.67
2023-03-08T06:35:59.373Z,32.50
2023-03-08T06:38:29.740Z,32.90
2023-03-08T06:40:58.324Z,33.30
2023-03-08T06:43:27.778Z,33.80
2023-03-08T06:45:55.805Z,31.80
2023-03-08T06:48:23.952Z,31.70
2023-03-08T06:50:51.834Z,33.23
2023-03-08T06:53:19.478Z,31.40
2023-03-08T06:55:47.131Z,31.87
2023-03-08T06:58:14.895Z,32.03
2023-03-08T07:00:43.965Z,34.63
2023-03-08T07:03:12.440Z,33.00
2023-03-08T07:05:40.405Z,30.90
2023-03-08T07:08:08.601Z,28.60
2023-03-08T07:10:36.262Z,30.17
2023-03-08T07:13:04.002Z,28.10
2023-03-08T07:15:31.788Z,28.93
2023-03-08T07:18:00.861Z,28.37
2023-03-08T07:20:28.670Z,28.30
2023-03-08T07:22:57.100Z,32.70
2023-03-08T07:25:24.786Z,30.30
2023-03-08T07:27:52.439Z,32.00
2023-03-08T07:30:20.462Z,30.70
2023-03-08T07:32:48.335Z,33.30
2023-03-08T07:35:17.613Z,33.97
2023-03-08T07:37:46.544Z,28.83
2023-03-08T07:40:16.271Z,26.03
2023-03-08T07:42:44.116Z,28.63
2023-03-08T07:45:12.835Z,28.83
2023-03-08T07:47:40.672Z,26.73
2023-03-08T07:50:09.402Z,25.17
2023-03-08T07:52:38.463Z,26.50
2023-03-08T07:55:07.370Z,24.57
2023-03-08T07:57:35.106Z,28.57
2023-03-08T08:00:07.339Z,24.97
2023-03-08T08:02:35.091Z,24.50
2023-03-08T08:05:04.032Z,24.37
2023-03-08T08:07:32.218Z,23.33
2023-03-08T08:10:01.271Z,26.23
2023-03-08T08:12:28.957Z,28.13
2023-03-08T08:14:56.690Z,31.87
2023-03-08T08:17:24.328Z,26.70
2023-03-08T08:19:52.084Z,25.83
2023-03-08T08:22:19.696Z,28.67
2023-03-08T08:24:47.380Z,23.40
2023-03-08T08:27:16.409Z,24.70
2023-03-08T08:29:46.150Z,23.93
2023-03-08T08:32:14.074Z,22.20
2023-03-08T08:34:41.745Z,23.37
2023-03-08T08:37:09.367Z,23.37
2023-03-08T08:39:37.085Z,25.00
2023-03-08T08:42:05.039Z,22.83
2023-03-08T08:44:34.085Z,22.77
2023-03-08T08:47:01.739Z,22.17
2023-03-08T08:49:29.421Z,22.37
2023-03-08T08:51:57.139Z,22.83
2023-03-08T08:54:24.879Z,21.60
2023-03-08T08:56:52.535Z,22.23
2023-03-08T08:59:20.219Z,24.23
2023-03-08T09:01:49.221Z,23.00
2023-03-08T09:04:17.808Z,24.40
2023-03-08T09:06:45.608Z,21.67
2023-03-08T09:09:13.276Z,20.27
2023-03-08T09:11:53.838Z,19.93
2023-03-08T09:14:22.339Z,19.97
2023-03-08T09:16:52.564Z,22.23
2023-03-08T09:19:20.579Z,22.17
2023-03-08T09:21:48.485Z,22.33
2023-03-08T09:24:16.713Z,18.20
2023-03-08T09:26:44.457Z,20.27
2023-03-08T09:29:12.855Z,20.77
2023-03-08T09:31:42.400Z,21.77
2023-03-08T09:34:14.755Z,18.30
2023-03-08T09:36:43.037Z,19.77
2023-03-08T09:39:13.130Z,20.20
2023-03-08T09:41:52.563Z,18.03
2023-03-08T09:44:53.184Z,19.23
2023-03-08T09:47:30.146Z,18.77
2023-03-08T09:50:05.915Z,19.30
2023-03-08T09:52:38.332Z,19.47
2023-03-08T09:55:10.493Z,18.50
2023-03-08T09:57:43.284Z,17.60
2023-03-08T10:00:20.841Z,18.13
2023-03-08T10:02:54.539Z,16.23
2023-03-08T10:05:24.826Z,18.87
2023-03-08T10:07:58.107Z,16.10
2023-03-08T10:10:44.792Z,16.80
2023-03-08T10:13:29.155Z,14.67
2023-03-08T10:16:03.897Z,13.70
2023-03-08T10:18:34.852Z,15.63
2023-03-08T10:21:04.592Z,19.63
2023-03-08T10:23:33.672Z,18.27
2023-03-08T10:26:02.873Z,20.30
2023-03-08T10:28:30.587Z,17.93
2023-03-08T10:30:59.601Z,19.90
2023-03-08T10:33:32.693Z,21.10
2023-03-08T10:36:04.599Z,20.73
2023-03-08T10:38:34.196Z,20.70
2023-03-08T10:41:03.477Z,21.37
2023-03-08T10:43:33.827Z,23.67
2023-03-08T10:46:02.964Z,18.83
2023-03-08T10:48:30.751Z,19.67
2023-03-08T10:51:00.593Z,20.83
2023-03-08T10:53:30.395Z,19.30
2023-03-08T10:55:59.750Z,19.33
2023-03-08T10:58:35.958Z,16.90
2023-03-08T11:01:06.248Z,17.63
2023-03-08T11:03:34.620Z,14.87
2023-03-08T11:06:04.110Z,16.13
2023-03-08T11:08:34.818Z,17.53
2023-03-08T11:11:08.402Z,12.33
2023-03-08T11:13:37.997Z,13.77
2023-03-08T11:16:14.493Z,11.67
2023-03-08T11:18:51.561Z,12.40
2023-03-08T11:21:26.578Z,10.83
2023-03-08T11:24:01.521Z,11.93
2023-03-08T11:26:36.579Z,10.03
2023-03-08T11:29:14.748Z,7.77
2023-03-08T11:31:47.313Z,7.50
2023-03-08T11:34:38.679Z,8.60
2023-03-08T11:37:12.320Z,8.40
2023-03-08T11:39:46.367Z,9.30
2023-03-08T11:42:19.720Z,8.30
2023-03-08T11:45:09.939Z,8.33
2023-03-08T11:48:02.386Z,9.27
2023-03-08T11:50:32.852Z,8.13
2023-03-08T11:53:11.838Z,8.50
2023-03-08T11:55:59.086Z,9.10
2023-03-08T11:58:29.740Z,7.63
2023-03-08T12:01:01.442Z,7.77
2023-03-08T12:03:33.014Z,6.33
2023-03-08T12:06:02.958Z,8.30
2023-03-08T12:08:33.767Z,9.47
2023-03-08T12:11:05.700Z,9.73
2023-03-08T12:13:35.397Z,10.87
2023-03-08T12:16:10.163Z,11.63
2023-03-08T12:18:41.705Z,10.70
2023-03-08T12:21:17.864Z,10.10
2023-03-08T12:23:50.869Z,11.23
2023-03-08T12:26:23.205Z,10.50
2023-03-08T12:28:54.585Z,11.10
2023-03-08T12:31:28.347Z,10.90
2023-03-08T12:33:58.183Z,11.10
2023-03-08T12:36:37.630Z,14.43
2023-03-08T12:39:10.181Z,13.70
2023-03-08T12:41:39.392Z,12.57
2023-03-08T12:44:08.541Z,11.37
2023-03-08T12:47:00.277Z,12.00
2023-03-08T12:49:33.493Z,29.10
2023-03-08T12:52:03.840Z,10.17
2023-03-08T12:54:33.897Z,14.30
2023-03-08T12:57:04.055Z,6.97
2023-03-08T12:59:37.207Z,7.20
2023-03-08T13:02:26.060Z,7.77
2023-03-08T13:05:04.811Z,9.37
2023-03-08T13:07:37.056Z,9.17
2023-03-08T13:10:09.768Z,7.73
2023-03-08T13:13:03.112Z,9.27
2023-03-08T13:15:30.848Z,7.67
2023-03-08T13:18:06.033Z,8.07
2023-03-08T13:20:50.642Z,8.87
2023-03-08T13:23:26.561Z,8.33
2023-03-08T13:26:08.197Z,8.70
2023-03-08T13:28:47.232Z,8.93
2023-03-08T13:31:18.452Z,8.17
2023-03-08T13:33:48.363Z,9.90
2023-03-08T13:36:20.186Z,8.67
2023-03-08T13:38:58.150Z,8.73
2023-03-08T13:41:33.708Z,8.43
2023-03-08T13:44:03.803Z,8.60
2023-03-08T13:46:31.646Z,7.90
2023-03-08T13:48:59.444Z,7.43
2023-03-08T13:51:29.071Z,8.20
2023-03-08T13:53:57.413Z,7.40
2023-03-08T13:56:27.569Z,8.10
2023-03-08T13:58:56.909Z,7.60
2023-03-08T14:01:27.506Z,7.67
2023-03-08T14:03:58.363Z,9.27
2023-03-08T14:06:29.878Z,8.30
2023-03-08T14:09:00.482Z,9.20
2023-03-08T14:11:30.515Z,8.40
2023-03-08T14:13:59.567Z,9.63
2023-03-08T14:16:31.550Z,10.90
2023-03-08T14:18:59.852Z,10.53
2023-03-08T14:21:29.365Z,10.80
2023-03-08T14:23:58.847Z,15.27
2023-03-08T14:26:34.852Z,9.00
2023-03-08T14:29:21.760Z,9.70
2023-03-08T14:31:55.997Z,10.50
2023-03-08T14:34:25.536Z,10.00
2023-03-08T14:36:56.544Z,9.73
2023-03-08T14:39:25.859Z,9.50
2023-03-08T14:41:53.917Z,8.47
2023-03-08T14:44:22.986Z,8.60
2023-03-08T14:46:58.163Z,8.37
2023-03-08T14:49:29.372Z,8.57
2023-03-08T14:51:57.500Z,8.53
2023-03-08T14:54:32.805Z,7.30
2023-03-08T14:57:03.820Z,8.80
2023-03-08T14:59:31.552Z,7.60
2023-03-08T15:01:59.327Z,5.57
2023-03-08T15:04:28.428Z,7.77
2023-03-08T15:06:56.141Z,8.60
2023-03-08T15:09:26.254Z,8.20
2023-03-08T15:11:57.103Z,10.27
2023-03-08T15:14:24.809Z,7.77
2023-03-08T15:16:55.066Z,9.10
2023-03-08T15:19:22.709Z,7.47
2023-03-08T15:21:51.739Z,8.43
2023-03-08T15:24:19.756Z,7.87
2023-03-08T15:26:47.672Z,7.60
2023-03-08T15:29:25.505Z,8.30
2023-03-08T15:31:53.311Z,9.80
2023-03-08T15:34:21.198Z,9.20
2023-03-08T15:36:49.911Z,7.47
2023-03-08T15:39:19.411Z,8.73
2023-03-08T15:41:47.271Z,7.67
2023-03-08T15:44:14.963Z,10.00
2023-03-08T15:46:42.938Z,7.73
2023-03-08T15:49:11.124Z,8.53
2023-03-08T15:51:39.442Z,8.00
2023-03-08T15:54:07.697Z,9.03
2023-03-08T15:56:36.781Z,8.23
2023-03-08T15:59:04.473Z,7.47
2023-03-08T16:01:33.215Z,6.80
2023-03-08T16:04:01.031Z,7.87
2023-03-08T16:06:28.788Z,7.17
2023-03-08T16:08:57.596Z,7.43
2023-03-08T16:11:25.468Z,9.00
2023-03-08T16:13:54.589Z,11.97
2023-03-08T16:16:27.638Z,10.13
2023-03-08T16:18:59.923Z,8.47
2023-03-08T16:21:27.625Z,9.50
2023-03-08T16:23:55.328Z,9.57
2023-03-08T16:26:24.168Z,7.60
2023-03-08T16:28:51.845Z,9.10
2023-03-08T16:31:21.766Z,9.77
2023-03-08T16:33:49.724Z,10.60
2023-03-08T16:36:17.368Z,10.87
2023-03-08T16:38:45.081Z,11.97
2023-03-08T16:41:14.219Z,11.47
2023-03-08T16:43:49.822Z,11.33
2023-03-08T16:46:21.374Z,15.53
2023-03-08T16:48:49.905Z,15.53
2023-03-08T16:51:18.704Z,11.80
2023-03-08T16:53:46.453Z,14.20
2023-03-08T16:56:18.592Z,10.37
2023-03-08T16:58:46.389Z,13.30
2023-03-08T17:01:14.612Z,12.77
2023-03-08T17:03:43.665Z,12.83
2023-03-08T17:06:13.342Z,11.37
2023-03-08T17:08:41.149Z,13.53
2023-03-08T17:11:15.449Z,12.93
2023-03-08T17:13:43.256Z,11.10
2023-03-08T17:16:12.871Z,14.43
2023-03-08T17:18:40.674Z,14.57
2023-03-08T17:21:09.774Z,15.83
2023-03-08T17:23:37.587Z,15.90
2023-03-08T17:26:06.421Z,14.10
2023-03-08T17:28:35.014Z,14.70
2023-03-08T17:31:03.281Z,15.50
2023-03-08T17:33:31.030Z,16.90
2023-03-08T17:36:00.018Z,16.07
2023-03-08T17:38:29.609Z,14.60
2023-03-08T17:40:57.310Z,15.60
2023-03-08T17:43:25.049Z,15.20
2023-03-08T17:45:59.670Z,17.50
2023-03-08T17:48:27.408Z,16.30
2023-03-08T17:50:55.379Z,15.57
2023-03-08T17:53:23.039Z,14.43
2023-03-08T17:55:52.178Z,13.93
2023-03-08T17:58:22.339Z,15.03
2023-03-08T18:00:51.675Z,13.93
2023-03-08T18:03:19.428Z,14.43
2023-03-08T18:05:48.941Z,15.00
2023-03-08T18:08:16.638Z,15.53
2023-03-08T18:10:44.707Z,15.77
2023-03-08T18:13:13.766Z,13.97
2023-03-08T18:15:41.541Z,17.13
2023-03-08T18:18:09.178Z,15.50
2023-03-08T18:20:36.862Z,16.70
2023-03-08T18:23:07.016Z,15.60
2023-03-08T18:25:35.180Z,17.50
2023-03-08T18:28:03.132Z,17.80
2023-03-08T18:30:32.212Z,16.27
2023-03-08T18:32:59.839Z,14.47
2023-03-08T18:35:27.597Z,14.20
2023-03-08T18:37:55.294Z,17.03
2023-03-08T18:40:23.214Z,36.23
2023-03-08T18:42:50.928Z,18.97
2023-03-08T18:45:18.932Z,21.30
2023-03-08T18:47:50.638Z,15.40
2023-03-08T18:50:19.407Z,16.13
2023-03-08T18:52:47.228Z,15.10
2023-03-08T18:55:15.122Z,14.77
2023-03-08T18:57:42.789Z,15.73
2023-03-08T19:00:12.046Z,14.43
2023-03-08T19:02:39.827Z,11.90
2023-03-08T19:05:09.839Z,14.57
2023-03-08T19:07:37.541Z,12.47
2023-03-08T19:10:06.591Z,13.97
2023-03-08T19:12:37.291Z,14.07
2023-03-08T19:15:05.746Z,14.77
2023-03-08T19:17:33.497Z,11.90
2023-03-08T19:20:01.146Z,10.90
2023-03-08T19:22:30.223Z,11.67
2023-03-08T19:24:58.002Z,11.23
2023-03-08T19:27:25.769Z,13.03
2023-03-08T19:29:53.405Z,10.83
2023-03-08T19:32:21.139Z,11.63
2023-03-08T19:34:49.172Z,11.87
2023-03-08T19:37:16.928Z,12.47
2023-03-08T19:39:47.498Z,14.80
2023-03-08T19:42:16.781Z,10.47
2023-03-08T19:44:48.253Z,11.10
2023-03-08T19:47:16.679Z,10.33
2023-03-08T19:49:44.439Z,10.00
2023-03-08T19:52:13.982Z,9.77
2023-03-08T19:54:42.930Z,10.60
2023-03-08T19:57:12.507Z,10.13
2023-03-08T19:59:40.266Z,10.60
2023-03-08T20:02:10.029Z,7.60
2023-03-08T20:04:37.732Z,9.10
2023-03-08T20:07:05.867Z,7.63
2023-03-08T20:09:33.592Z,6.83
2023-03-08T20:12:01.311Z,9.70
2023-03-08T20:14:30.514Z,9.50
2023-03-08T20:16:59.227Z,9.70
2023-03-08T20:19:27.106Z,9.43
2023-03-08T20:21:54.833Z,10.03
2023-03-08T20:24:24.136Z,9.83
2023-03-08T20:26:52.264Z,7.33
2023-03-08T20:29:20.628Z,7.33
2023-03-08T20:31:50.100Z,9.77
2023-03-08T20:34:18.344Z,9.80
2023-03-08T20:36:47.464Z,9.60
2023-03-08T20:39:15.240Z,8.57
2023-03-08T20:41:42.947Z,8.80
2023-03-08T20:44:12.032Z,9.37
2023-03-08T20:46:39.776Z,9.90
2023-03-08T20:49:11.075Z,9.73
2023-03-08T20:51:38.788Z,9.70
2023-03-08T20:54:06.589Z,10.00
2023-03-08T20:56:34.260Z,9.70
2023-03-08T20:59:02.380Z,9.37
2023-03-08T21:01:31.926Z,10.93
2023-03-08T21:03:59.656Z,10.20
2023-03-08T21:06:30.142Z,11.20
2023-03-08T21:08:59.112Z,9.53
2023-03-08T21:11:26.853Z,9.67
2023-03-08T21:13:55.433Z,9.87
2023-03-08T21:16:25.293Z,9.60
2023-03-08T21:18:53.758Z,10.43
2023-03-08T21:21:24.244Z,10.30
2023-03-08T21:23:54.375Z,16.90
2023-03-08T21:26:22.302Z,13.30
2023-03-08T21:28:49.949Z,11.47
2023-03-08T21:31:19.949Z,11.27
2023-03-08T21:33:47.675Z,11.77
2023-03-08T21:36:15.556Z,10.70
2023-03-08T21:38:43.323Z,9.47
2023-03-08T21:41:18.764Z,7.40
2023-03-08T21:43:46.423Z,8.87
2023-03-08T21:46:14.202Z,10.83
2023-03-08T21:48:42.177Z,9.90
2023-03-08T21:51:11.084Z,10.73
2023-03-08T21:53:39.415Z,9.97
2023-03-08T21:56:08.232Z,11.67
2023-03-08T21:58:37.697Z,9.83
2023-03-08T22:01:06.394Z,9.57
2023-03-08T22:03:35.900Z,9.57
2023-03-08T22:06:03.588Z,7.97
2023-03-08T22:08:31.313Z,10.20
2023-03-08T22:10:59.037Z,10.43
2023-03-08T22:13:26.771Z,9.40
2023-03-08T22:15:56.242Z,9.53
2023-03-08T22:18:24.043Z,11.97
2023-03-08T22:20:51.758Z,11.80
2023-03-08T22:23:19.459Z,9.27
2023-03-08T22:25:47.275Z,10.20
2023-03-08T22:28:15.044Z,7.70
2023-03-08T22:30:42.776Z,9.63
2023-03-08T22:33:12.113Z,10.27
2023-03-08T22:35:39.893Z,11.13
2023-03-08T22:38:07.568Z,13.73
2023-03-08T22:40:38.301Z,10.27
2023-03-08T22:43:06.025Z,17.40
2023-03-08T22:45:34.564Z,12.90
2023-03-08T22:48:02.907Z,8.97
2023-03-08T22:50:32.104Z,10.50
2023-03-08T22:52:59.772Z,13.47
2023-03-08T22:55:27.471Z,14.10
2023-03-08T22:57:55.103Z,16.67
2023-03-08T23:00:22.876Z,13.10
2023-03-08T23:02:50.959Z,14.67
2023-03-08T23:05:20.644Z,15.20
2023-03-08T23:07:49.652Z,14.17
2023-03-08T23:10:18.133Z,9.03
2023-03-08T23:12:45.765Z,13.87
2023-03-08T23:15:13.677Z,14.67
2023-03-08T23:17:41.352Z,14.30
2023-03-08T23:21:23.746Z,14.60
2023-03-08T23:23:51.512Z,9.37
2023-03-08T23:26:23.868Z,10.70
2023-03-08T23:28:51.532Z,10.67
2023-03-08T23:31:20.832Z,12.47
2023-03-08T23:33:49.447Z,8.00
2023-03-08T23:36:19.967Z,12.27
2023-03-08T23:38:49.267Z,12.00
2023-03-08T23:41:17.991Z,9.73
2023-03-08T23:43:45.884Z,9.87
2023-03-08T23:46:15.190Z,10.17
2023-03-08T23:48:43.708Z,13.03
2023-03-08T23:51:14.194Z,14.77
2023-03-08T23:53:42.288Z,10.27
2023-03-08T23:56:18.598Z,16.17
2023-03-08T23:58:47.955Z,12.33
